Time;durP1;ratioP1;P1;durP2;ratioP2;P2;SDS_P1;SDS_P2;PMS_P1;PMS_P2;Temp;Humidity;BMP_temperature;BMP_pressure;BME280_temperature;BME280_humidity;BME280_pressure;Samples;Min_cycle;Max_cycle;Signal;HPM_P1;HPM_P2
2023/01/01 00:01:48;;;;;;;;;;;;;;;14.46;100.00;98765.28;4267997;33;19950;-73
2023/01/01 00:04:14;;;;;;;;;;;;;;;14.58;100.00;98767.63;4266476;33;20386;-73
2023/01/01 00:06:41;;;;;;;;;;;;;;;14.59;100.00;98742.16;4262253;33;19956;-72
2023/01/01 00:11:52;;;;;;;;;;;;;;;14.63;100.00;98759.50;4253018;33;20077;-72
2023/01/01 00:14:19;;;;;;;;;;;;;;;14.09;100.00;98751.16;4253963;33;19995;-73
2023/01/01 00:16:45;;;;;;;;;;;;;;;14.03;100.00;98740.66;4251533;33;20317;-73
2023/01/01 00:19:18;;;;;;;;;;;;;;;13.95;100.00;98750.16;4267806;33;19946;-73
2023/01/01 00:21:45;;;;;;;;;;;;;;;13.90;100.00;98753.69;4267138;33;19939;-73
2023/01/01 00:24:11;;;;;;;;;;;;;;;13.90;100.00;98752.91;4281566;33;20359;-73
2023/01/01 00:26:37;;;;;;;;;;;;;;;13.77;100.00;98755.09;4279944;33;19949;-73
2023/01/01 00:29:04;;;;;;;;;;;;;;;13.66;100.00;98748.12;4280732;33;19945;-72
2023/01/01 00:31:30;;;;;;;;;;;;;;;13.67;100.00;98738.91;4280628;33;19957;-73
2023/01/01 00:33:57;;;;;;;;;;;;;;;13.67;100.00;98759.75;4277261;33;19942;-73
2023/01/01 00:36:24;;;;;;;;;;;;;;;13.63;100.00;98748.69;4267437;33;19965;-74
2023/01/01 00:38:50;;;;;;;;;;;;;;;13.57;100.00;98755.19;4266390;33;19952;-73
2023/01/01 00:41:17;;;;;;;;;;;;;;;13.63;100.00;98743.25;4269404;33;19949;-74
2023/01/01 00:43:44;;;;;;;;;;;;;;;13.62;100.00;98741.63;4280508;33;19949;-73
2023/01/01 00:46:10;;;;;;;;;;;;;;;13.58;100.00;98748.69;4281589;33;20309;-74
2023/01/01 00:48:37;;;;;;;;;;;;;;;13.76;100.00;98753.47;4281533;33;20372;-73
2023/01/01 00:51:03;;;;;;;;;;;;;;;13.66;100.00;98753.53;4283166;33;19992;-73
2023/01/01 00:53:30;;;;;;;;;;;;;;;13.56;100.00;98758.97;4282400;33;19944;-74
2023/01/01 00:55:56;;;;;;;;;;;;;;;13.51;100.00;98767.91;4283616;33;19974;-74
2023/01/01 00:58:23;;;;;;;;;;;;;;;13.55;100.00;98762.78;4283475;33;20206;-74
2023/01/01 03:01:08;;;;;;;;;;;;;;;13.21;100.00;98795.78;4779541;27;19952;-74
2023/01/01 03:03:46;;;;;;;;;;;;;;;13.33;100.00;98788.25;4325695;33;19944;-74
2023/01/01 03:06:21;;;;;;;;;;;;;;;13.35;100.00;98791.47;4328824;33;19979;-74
2023/01/01 03:08:48;;;;;;;;;;;;;;;13.42;100.00;98794.72;4328551;33;20006;-74
2023/01/01 03:11:17;;;;;;;;;;;;;;;13.42;100.00;98805.53;4327401;33;19952;-74
2023/01/01 03:13:43;;;;;;;;;;;;;;;13.46;100.00;98791.47;4326122;33;20293;-73
2023/01/01 03:16:16;;;;;;;;;;;;;;;13.50;100.00;98792.53;4328384;33;19960;-74
2023/01/01 03:19:10;;;;;;;;;;;;;;;13.41;100.00;98801.19;4328244;33;19940;-74
2023/01/01 03:21:48;;;;;;;;;;;;;;;13.67;100.00;98795.72;4328558;33;20301;-74
2023/01/01 03:24:18;;;;;;;;;;;;;;;13.60;100.00;98808.75;4328389;33;19947;-74
2023/01/01 03:26:47;;;;;;;;;;;;;;;13.74;100.00;98803.56;4327339;33;20323;-73
2023/01/01 03:29:14;;;;;;;;;;;;;;;13.51;100.00;98805.78;4327404;33;20680;-74
2023/01/01 03:31:43;;;;;;;;;;;;;;;13.81;100.00;98794.03;4328368;33;20338;-73
2023/01/01 03:34:16;;;;;;;;;;;;;;;13.88;100.00;98801.06;4327898;33;20251;-74
2023/01/01 03:36:45;;;;;;;;;;;;;;;13.90;100.00;98801.62;4326224;33;19954;-74
2023/01/01 03:39:16;;;;;;;;;;;;;;;13.80;100.00;98822.22;4328118;33;19959;-74
2023/01/01 03:42:09;;;;;;;;;;;;;;;13.72;100.00;98806.53;4328075;33;19962;-73
2023/01/01 03:44:51;;;;;;;;;;;;;;;13.81;100.00;98798.66;4324200;33;19966;-73
2023/01/01 03:47:17;;;;;;;;;;;;;;;13.85;100.00;98794.31;4328143;33;19950;-72
2023/01/01 03:49:44;;;;;;;;;;;;;;;13.72;100.00;98817.38;4327791;33;19944;-73
2023/01/01 03:52:26;;;;;;;;;;;;;;;13.81;100.00;98799.44;4326490;33;19948;-72
2023/01/01 03:55:01;;;;;;;;;;;;;;;13.61;100.00;98805.75;4326658;33;19944;-73
2023/01/01 03:57:33;;;;;;;;;;;;;;;13.88;100.00;98809.19;4313279;33;19967;-73
2023/01/01 04:00:04;;;;;;;;;;;;;;;13.84;100.00;98818.94;4313100;33;19944;-73
2023/01/01 04:02:41;;;;;;;;;;;;;;;13.70;100.00;98819.53;4312977;33;19951;-75
2023/01/01 04:05:10;;;;;;;;;;;;;;;13.64;100.00;98809.78;4313443;33;19990;-73
2023/01/01 04:07:36;;;;;;;;;;;;;;;13.69;100.00;98817.09;4310898;33;19945;-72
2023/01/01 04:10:15;;;;;;;;;;;;;;;13.70;100.00;98826.84;4312354;33;19989;-73
2023/01/01 04:12:45;;;;;;;;;;;;;;;13.84;100.00;98821.66;4312466;33;20357;-73
2023/01/01 04:15:11;;;;;;;;;;;;;;;13.48;100.00;98833.38;4312715;33;20290;-73
2023/01/01 04:17:37;;;;;;;;;;;;;;;13.59;100.00;98835.00;4311657;33;20306;-73
2023/01/01 04:20:04;;;;;;;;;;;;;;;13.55;100.00;98833.09;4312985;33;19960;-72
2023/01/01 04:22:30;;;;;;;;;;;;;;;13.69;100.00;98817.91;4312903;33;19952;-72
2023/01/01 04:24:56;;;;;;;;;;;;;;;13.74;100.00;98834.13;4313013;33;19962;-73
2023/01/01 04:27:22;;;;;;;;;;;;;;;13.63;100.00;98840.66;4313011;33;19952;-73
2023/01/01 04:29:49;;;;;;;;;;;;;;;13.43;100.00;98826.09;4310422;33;20105;-71
2023/01/01 04:32:15;;;;;;;;;;;;;;;13.62;100.00;98822.78;4312919;33;20020;-73
2023/01/01 04:34:41;;;;;;;;;;;;;;;13.77;100.00;98830.06;4312624;33;19948;-72
2023/01/01 04:37:07;;;;;;;;;;;;;;;13.69;100.00;98836.84;4296179;33;20087;-72
2023/01/01 04:39:34;;;;;;;;;;;;;;;13.87;100.00;98835.44;4295595;33;19959;-73
2023/01/01 04:42:00;;;;;;;;;;;;;;;13.99;100.00;98843.22;4294219;33;19955;-72
2023/01/01 04:44:26;;;;;;;;;;;;;;;13.76;100.00;98845.47;4295373;33;19961;-72
2023/01/01 04:46:52;;;;;;;;;;;;;;;13.74;100.00;98836.84;4296312;33;19971;-72
2023/01/01 04:49:19;;;;;;;;;;;;;;;14.07;100.00;98834.56;4281243;33;19992;-73
2023/01/01 04:51:45;;;;;;;;;;;;;;;14.08;100.00;98844.28;4281217;33;19959;-73
2023/01/01 04:54:11;;;;;;;;;;;;;;;13.85;100.00;98845.75;4280669;33;19945;-72
2023/01/01 04:56:37;;;;;;;;;;;;;;;14.09;100.00;98851.34;4280457;33;19959;-73
2023/01/01 04:59:03;;;;;;;;;;;;;;;14.03;100.00;98849.72;4280932;33;20026;-73
2023/01/01 05:01:30;;;;;;;;;;;;;;;13.88;100.00;98855.19;4280251;33;20088;-73
2023/01/01 05:03:57;;;;;;;;;;;;;;;13.89;100.00;98864.94;4281729;33;19944;-73
2023/01/01 05:06:24;;;;;;;;;;;;;;;13.99;100.00;98862.19;4279582;33;19957;-73
2023/01/01 05:08:51;;;;;;;;;;;;;;;13.91;100.00;98862.75;4280512;33;19949;-73
2023/01/01 05:11:19;;;;;;;;;;;;;;;14.04;100.00;98856.78;4281420;33;19973;-73
2023/01/01 05:13:46;;;;;;;;;;;;;;;13.97;100.00;98856.25;4280432;33;20399;-73
2023/01/01 05:16:14;;;;;;;;;;;;;;;13.97;100.00;98861.66;4267084;33;19942;-73
2023/01/01 05:18:41;;;;;;;;;;;;;;;13.90;100.00;98877.38;4264568;33;20393;-72
2023/01/01 05:21:08;;;;;;;;;;;;;;;13.81;100.00;98880.63;4266790;33;19985;-73
2023/01/01 05:23:35;;;;;;;;;;;;;;;13.77;100.00;98878.78;4266767;33;19948;-73
2023/01/01 05:26:08;;;;;;;;;;;;;;;13.70;100.00;98873.63;4266849;33;19945;-73
2023/01/01 05:28:35;;;;;;;;;;;;;;;13.74;100.00;98874.72;4264305;33;20296;-73
2023/01/01 05:31:04;;;;;;;;;;;;;;;13.77;100.00;98871.47;4267060;33;19954;-74
2023/01/01 05:33:30;;;;;;;;;;;;;;;13.88;100.00;98864.13;4266735;33;19980;-73
2023/01/01 05:35:56;;;;;;;;;;;;;;;13.91;100.00;98884.41;4266743;33;19990;-73
2023/01/01 05:38:22;;;;;;;;;;;;;;;14.07;100.00;98875.16;4266592;33;19953;-73
2023/01/01 05:40:48;;;;;;;;;;;;;;;14.06;100.00;98883.56;4252865;33;20086;-72
2023/01/01 05:43:16;;;;;;;;;;;;;;;14.03;100.00;98890.34;4266085;33;19957;-72
2023/01/01 05:45:43;;;;;;;;;;;;;;;13.83;100.00;98893.09;4266682;33;19942;-73
2023/01/01 05:48:09;;;;;;;;;;;;;;;13.73;100.00;98891.22;4291110;33;20111;-73
2023/01/01 05:50:35;;;;;;;;;;;;;;;13.88;100.00;98895.78;4295350;33;20372;-72
2023/01/01 05:53:02;;;;;;;;;;;;;;;13.69;100.00;98904.50;4293996;33;19945;-72
2023/01/01 05:55:28;;;;;;;;;;;;;;;13.97;100.00;98894.13;4294104;33;20390;-73
2023/01/01 05:57:54;;;;;;;;;;;;;;;13.81;100.00;98910.41;4297900;33;19952;-72
2023/01/01 06:00:21;;;;;;;;;;;;;;;13.89;100.00;98908.25;4311388;33;20032;-72
2023/01/01 06:02:50;;;;;;;;;;;;;;;13.94;100.00;98910.94;4311333;33;19952;-73
2023/01/01 06:05:16;;;;;;;;;;;;;;;13.95;100.00;98913.34;4310779;33;19948;-72
2023/01/01 06:07:42;;;;;;;;;;;;;;;14.00;100.00;98907.12;4321767;33;19948;-73
2023/01/01 06:10:09;;;;;;;;;;;;;;;13.97;100.00;98915.78;4326395;33;19943;-73
2023/01/01 06:12:35;;;;;;;;;;;;;;;13.96;100.00;98908.75;4325661;33;19948;-73
2023/01/01 06:15:01;;;;;;;;;;;;;;;13.93;100.00;98920.16;4326334;33;19948;-73
2023/01/01 06:17:27;;;;;;;;;;;;;;;13.93;100.00;98910.13;4325034;33;19956;-73
2023/01/01 06:19:54;;;;;;;;;;;;;;;13.90;100.00;98926.09;4308682;33;20052;-73
2023/01/01 06:22:20;;;;;;;;;;;;;;;13.74;100.00;98922.62;4309458;33;19937;-73
2023/01/01 06:24:46;;;;;;;;;;;;;;;13.84;100.00;98927.19;4309236;33;19948;-73
2023/01/01 06:27:12;;;;;;;;;;;;;;;13.83;100.00;98912.84;4309165;33;19974;-72
2023/01/01 06:29:38;;;;;;;;;;;;;;;13.75;100.00;98919.66;4306393;33;20125;-72
2023/01/01 06:32:04;;;;;;;;;;;;;;;13.70;100.00;98916.91;4309595;33;20048;-73
2023/01/01 06:34:31;;;;;;;;;;;;;;;13.51;100.00;98921.28;4308556;33;19936;-73
2023/01/01 06:36:57;;;;;;;;;;;;;;;13.64;100.00;98907.19;4309477;33;20003;-72
2023/01/01 06:39:23;;;;;;;;;;;;;;;13.49;100.00;98931.56;4309373;33;19952;-73
2023/01/01 06:41:49;;;;;;;;;;;;;;;13.56;100.00;98921.25;4307295;33;20368;-72
2023/01/01 06:44:15;;;;;;;;;;;;;;;13.32;100.00;98931.78;4306670;33;20010;-73
2023/01/01 06:46:41;;;;;;;;;;;;;;;13.49;100.00;98926.16;4280107;33;19971;-73
2023/01/01 06:49:11;;;;;;;;;;;;;;;13.46;100.00;98937.50;4280280;33;19955;-73
2023/01/01 06:51:42;;;;;;;;;;;;;;;13.63;100.00;98936.16;4291721;33;19972;-74
2023/01/01 06:54:09;;;;;;;;;;;;;;;13.29;100.00;98960.19;4293727;33;20037;-73
2023/01/01 06:56:35;;;;;;;;;;;;;;;13.30;100.00;98940.16;4294606;33;19944;-74
2023/01/01 06:59:03;;;;;;;;;;;;;;;13.53;100.00;98944.28;4294177;33;19959;-73
2023/01/01 07:01:30;;;;;;;;;;;;;;;13.24;100.00;98946.66;4293103;33;19969;-73
2023/01/01 07:03:58;;;;;;;;;;;;;;;13.34;100.00;98954.81;4294790;33;20408;-73
2023/01/01 07:06:25;;;;;;;;;;;;;;;13.34;100.00;98957.53;4296784;33;19957;-73
2023/01/01 07:08:52;;;;;;;;;;;;;;;13.35;100.00;98964.53;4282559;33;19972;-73
2023/01/01 07:11:18;;;;;;;;;;;;;;;13.43;100.00;98972.13;4283216;33;19945;-75
2023/01/01 07:13:44;;;;;;;;;;;;;;;13.38;100.00;98969.41;4281019;33;19971;-73
2023/01/01 07:16:10;;;;;;;;;;;;;;;13.30;100.00;98983.44;4281020;33;20304;-77
2023/01/01 07:18:37;;;;;;;;;;;;;;;13.42;100.00;98970.50;4282893;33;20075;-76
2023/01/01 07:21:04;;;;;;;;;;;;;;;13.36;100.00;98977.00;4283240;33;19953;-76
2023/01/01 07:23:32;;;;;;;;;;;;;;;13.52;100.00;98971.59;4289443;33;19945;-77
2023/01/01 07:25:58;;;;;;;;;;;;;;;13.43;100.00;98990.25;4311955;33;19976;-74
2023/01/01 07:28:25;;;;;;;;;;;;;;;13.54;100.00;98977.53;4311538;33;19960;-76
2023/01/01 07:30:55;;;;;;;;;;;;;;;13.45;100.00;98990.81;4328171;33;19948;-76
2023/01/01 07:33:22;;;;;;;;;;;;;;;13.46;100.00;98994.31;4328088;33;19958;-76
2023/01/01 07:35:48;;;;;;;;;;;;;;;13.35;100.00;98988.88;4328385;33;19953;-77
2023/01/01 07:38:15;;;;;;;;;;;;;;;13.63;100.00;98995.66;4326311;33;19944;-75
2023/01/01 07:40:41;;;;;;;;;;;;;;;13.40;100.00;98988.06;4319735;33;20789;-77
2023/01/01 07:43:08;;;;;;;;;;;;;;;13.55;100.00;99006.22;4323240;33;19944;-77
2023/01/01 07:45:35;;;;;;;;;;;;;;;13.54;100.00;98993.78;4327736;33;19944;-73
2023/01/01 07:48:01;;;;;;;;;;;;;;;13.66;100.00;99002.44;4327759;33;19962;-74
2023/01/01 07:50:29;;;;;;;;;;;;;;;13.70;100.00;99002.69;4325664;33;20323;-74
2023/01/01 07:52:56;;;;;;;;;;;;;;;13.77;100.00;99017.59;4326736;33;20195;-74
2023/01/01 07:55:22;;;;;;;;;;;;;;;13.85;100.00;99028.94;4326163;33;20364;-75
2023/01/01 07:57:48;;;;;;;;;;;;;;;13.92;100.00;99021.38;4318891;33;20673;-75
2023/01/01 08:00:16;;;;;;;;;;;;;;;13.80;100.00;99030.56;4288070;33;20338;-75
2023/01/01 08:02:43;;;;;;;;;;;;;;;13.69;100.00;99028.97;4292884;33;19952;-74
2023/01/01 08:05:09;;;;;;;;;;;;;;;13.81;100.00;99031.38;4289234;33;20071;-75
2023/01/01 08:07:36;;;;;;;;;;;;;;;13.90;100.00;99034.38;4291339;33;19949;-76
2023/01/01 08:10:03;;;;;;;;;;;;;;;13.80;100.00;99033.28;4290276;33;20071;-74
2023/01/01 08:12:29;;;;;;;;;;;;;;;14.00;100.00;99026.22;4288263;33;20357;-74
2023/01/01 08:14:55;;;;;;;;;;;;;;;13.93;100.00;99033.84;4290101;33;19937;-73
2023/01/01 08:17:22;;;;;;;;;;;;;;;14.09;100.00;99031.91;4293699;33;19966;-73
2023/01/01 08:19:49;;;;;;;;;;;;;;;14.07;100.00;99040.31;4279027;33;19953;-73
2023/01/01 08:22:15;;;;;;;;;;;;;;;14.12;100.00;99032.19;4281137;33;19946;-73
2023/01/01 08:24:41;;;;;;;;;;;;;;;14.07;100.00;99053.84;4281063;33;19996;-74
2023/01/01 08:27:11;;;;;;;;;;;;;;;14.12;100.00;99032.19;4280909;33;20009;-74
2023/01/01 08:29:37;;;;;;;;;;;;;;;14.13;100.00;99032.97;4277726;33;20407;-73
2023/01/01 08:32:03;;;;;;;;;;;;;;;14.22;100.00;99030.53;4291533;33;20053;-73
2023/01/01 08:34:29;;;;;;;;;;;;;;;14.19;100.00;99036.50;4290363;33;20305;-73
2023/01/01 08:36:56;;;;;;;;;;;;;;;14.33;100.00;99034.84;4283448;33;20000;-74
2023/01/01 08:39:22;;;;;;;;;;;;;;;14.42;100.00;99030.47;4289901;33;20341;-74
2023/01/01 08:41:48;;;;;;;;;;;;;;;14.44;100.00;99050.00;4265319;33;20115;-75
2023/01/01 08:44:14;;;;;;;;;;;;;;;14.58;100.00;99039.38;4264611;33;19949;-73
2023/01/01 08:46:41;;;;;;;;;;;;;;;14.69;100.00;99051.84;4266736;33;20352;-75
2023/01/01 08:49:07;;;;;;;;;;;;;;;14.66;100.00;99063.25;4266653;33;19952;-74
2023/01/01 08:51:33;;;;;;;;;;;;;;;14.60;100.00;99060.81;4287537;33;19952;-73
2023/01/01 08:53:59;;;;;;;;;;;;;;;14.61;100.00;99068.66;4295605;33;19956;-76
2023/01/01 08:56:26;;;;;;;;;;;;;;;15.01;100.00;99064.19;4294773;33;19978;-74
2023/01/01 08:58:52;;;;;;;;;;;;;;;14.98;100.00;99063.94;4294019;33;19948;-72
2023/01/01 09:01:20;;;;;;;;;;;;;;;14.88;100.00;99048.53;4294312;33;19941;-72
2023/01/01 09:03:49;;;;;;;;;;;;;;;14.86;100.00;99061.53;4292735;33;20390;-73
2023/01/01 09:06:15;;;;;;;;;;;;;;;14.53;100.00;99077.31;4293572;33;20844;-72
2023/01/01 09:08:41;;;;;;;;;;;;;;;14.73;100.00;99065.66;4292606;33;19940;-73
2023/01/01 09:11:18;;;;;;;;;;;;;;;14.71;100.00;99060.50;4294270;33;20384;-74
2023/01/01 09:13:44;;;;;;;;;;;;;;;14.69;100.00;99056.44;4319377;33;19948;-74
2023/01/01 09:16:10;;;;;;;;;;;;;;;14.77;100.00;99064.00;4324616;33;19944;-75
2023/01/01 09:18:36;;;;;;;;;;;;;;;14.73;100.00;99057.53;4326063;33;19956;-74
2023/01/01 09:21:05;;;;;;;;;;;;;;;15.01;100.00;99068.78;4307576;33;19952;-76
2023/01/01 09:23:31;;;;;;;;;;;;;;;14.74;100.00;99064.56;4304572;33;20496;-75
2023/01/01 09:26:03;;;;;;;;;;;;;;;14.87;100.00;99065.84;4296652;33;20592;-76
2023/01/01 09:28:30;;;;;;;;;;;;;;;14.85;100.00;99070.75;4303895;33;19972;-76
2023/01/01 09:30:56;;;;;;;;;;;;;;;14.79;100.00;99067.28;4303091;33;19963;-73
2023/01/01 09:33:22;;;;;;;;;;;;;;;14.72;100.00;99066.72;4300813;33;20016;-73
2023/01/01 09:35:49;;;;;;;;;;;;;;;14.91;100.00;99069.66;4299088;33;19976;-73
2023/01/01 09:38:15;;;;;;;;;;;;;;;14.92;100.00;99075.88;4299619;33;20353;-73
2023/01/01 09:40:44;;;;;;;;;;;;;;;15.03;100.00;99072.03;4302178;33;19986;-72
2023/01/01 09:43:20;;;;;;;;;;;;;;;14.93;100.00;99066.66;4300594;33;19948;-73
2023/01/01 09:45:57;;;;;;;;;;;;;;;15.08;100.00;99063.91;4298896;33;20330;-73
2023/01/01 09:48:25;;;;;;;;;;;;;;;15.15;100.00;99058.97;4297573;33;19953;-74
2023/01/01 09:50:52;;;;;;;;;;;;;;;15.03;100.00;99061.19;4300284;33;19995;-76
2023/01/01 09:53:33;;;;;;;;;;;;;;;15.15;100.00;99053.53;4297468;33;19968;-73
2023/01/01 09:56:00;;;;;;;;;;;;;;;15.20;100.00;99056.22;4293697;33;19950;-73
2023/01/01 09:58:33;;;;;;;;;;;;;;;14.97;100.00;99062.31;4277713;33;20354;-72
2023/01/01 10:01:06;;;;;;;;;;;;;;;15.12;100.00;99062.22;4278802;33;19963;-73
2023/01/01 10:03:38;;;;;;;;;;;;;;;14.95;100.00;99053.63;4278876;33;19945;-73
2023/01/01 10:06:19;;;;;;;;;;;;;;;15.35;100.00;99062.66;4275893;33;21331;-73
2023/01/01 10:09:06;;;;;;;;;;;;;;;15.29;100.00;99063.78;4275231;33;19941;-73
2023/01/01 10:11:51;;;;;;;;;;;;;;;15.44;100.00;99056.37;4276998;33;19967;-73
2023/01/01 10:14:35;;;;;;;;;;;;;;;15.41;100.00;99064.25;4263948;33;19963;-73
2023/01/01 10:17:05;;;;;;;;;;;;;;;15.37;100.00;99064.00;4260100;33;19950;-73
2023/01/01 10:19:35;;;;;;;;;;;;;;;15.55;100.00;99051.66;4263076;33;20063;-73
2023/01/01 10:22:05;;;;;;;;;;;;;;;15.49;100.00;99060.94;4266002;33;19981;-73
2023/01/01 10:24:31;;;;;;;;;;;;;;;15.37;100.00;99065.91;4265532;33;20003;-73
2023/01/01 10:27:00;;;;;;;;;;;;;;;15.40;100.00;99060.72;4268661;33;19956;-73
2023/01/01 10:29:31;;;;;;;;;;;;;;;15.53;100.00;99063.91;4272182;33;20294;-73
2023/01/01 10:32:04;;;;;;;;;;;;;;;15.41;100.00;99062.38;4278496;33;19941;-72
2023/01/01 10:34:31;;;;;;;;;;;;;;;15.68;100.00;99068.41;4276933;33;20324;-72
2023/01/01 10:36:58;;;;;;;;;;;;;;;15.81;100.00;99067.81;4277359;33;19965;-72
2023/01/01 10:39:25;;;;;;;;;;;;;;;15.75;100.00;99055.34;4281269;33;20022;-74
2023/01/01 10:41:51;;;;;;;;;;;;;;;16.01;100.00;99071.47;4281059;33;20035;-74
2023/01/01 10:44:32;;;;;;;;;;;;;;;15.94;100.00;99059.03;4281211;33;19949;-73
2023/01/01 10:47:03;;;;;;;;;;;;;;;16.05;100.00;99048.06;4318844;33;20005;-73
2023/01/01 10:49:30;;;;;;;;;;;;;;;15.94;100.00;99059.03;4318601;33;19948;-73
2023/01/01 10:51:58;;;;;;;;;;;;;;;16.10;100.00;99056.19;4316777;33;19948;-73
2023/01/01 10:54:30;;;;;;;;;;;;;;;16.24;100.00;99040.84;4319370;33;20500;-72
2023/01/01 10:56:57;;;;;;;;;;;;;;;16.01;100.00;99052.47;4319401;33;20303;-72
2023/01/01 10:59:37;;;;;;;;;;;;;;;16.05;100.00;99046.19;4320533;33;20252;-72
2023/01/01 11:02:12;;;;;;;;;;;;;;;16.06;100.00;99045.06;4318335;33;19964;-72
2023/01/01 11:04:38;;;;;;;;;;;;;;;16.28;100.00;99035.63;4320699;33;19943;-72
2023/01/01 11:07:05;;;;;;;;;;;;;;;16.05;100.00;99038.03;4321548;33;19998;-72
2023/01/01 11:09:35;;;;;;;;;;;;;;;16.11;100.00;99033.34;4320322;33;19952;-73
2023/01/01 11:12:03;;;;;;;;;;;;;;;16.21;100.00;99022.41;4320085;33;19966;-73
2023/01/01 11:14:32;;;;;;;;;;;;;;;15.89;100.00;99023.78;4320116;33;19974;-73
2023/01/01 11:16:58;;;;;;;;;;;;;;;16.01;100.00;99039.69;4319691;33;19944;-74
2023/01/01 11:19:31;;;;;;;;;;;;;;;15.94;100.00;99042.72;4306832;33;20008;-74
2023/01/01 11:21:59;;;;;;;;;;;;;;;15.92;100.00;99039.50;4304638;33;20012;-72
2023/01/01 11:24:26;;;;;;;;;;;;;;;16.03;100.00;99025.81;4307160;33;20022;-72
2023/01/01 11:26:53;;;;;;;;;;;;;;;15.92;100.00;99044.94;4309165;33;19954;-73
2023/01/01 11:29:23;;;;;;;;;;;;;;;16.14;100.00;99035.50;4304746;33;20438;-72
2023/01/01 11:31:50;;;;;;;;;;;;;;;15.89;100.00;99029.22;4307979;33;19962;-72
2023/01/01 11:34:29;;;;;;;;;;;;;;;16.08;100.00;99033.91;4307008;33;19944;-73
2023/01/01 11:37:07;;;;;;;;;;;;;;;15.93;100.00;99030.25;4308030;33;19954;-73
2023/01/01 11:39:36;;;;;;;;;;;;;;;16.08;100.00;99014.91;4304631;33;19966;-73
2023/01/01 11:42:03;;;;;;;;;;;;;;;16.12;100.00;99018.69;4302093;33;19952;-72
2023/01/01 11:44:34;;;;;;;;;;;;;;;16.07;100.00;99018.72;4303053;33;19967;-72
2023/01/01 11:47:01;;;;;;;;;;;;;;;16.19;100.00;99016.41;4307841;33;20346;-73
2023/01/01 11:49:28;;;;;;;;;;;;;;;16.22;100.00;99015.84;4306400;33;19963;-73
2023/01/01 11:51:55;;;;;;;;;;;;;;;16.20;100.00;99018.06;4310582;33;19946;-73
2023/01/01 11:54:33;;;;;;;;;;;;;;;16.14;100.00;99019.19;4318286;33;19957;-73
2023/01/01 11:57:04;;;;;;;;;;;;;;;16.49;100.00;99009.03;4274453;33;20007;-73
2023/01/01 11:59:38;;;;;;;;;;;;;;;16.62;100.00;98994.75;4290150;33;19969;-73
2023/01/01 12:02:10;;;;;;;;;;;;;;;16.15;100.00;99010.75;4441872;28;20302;-73
2023/01/01 12:05:00;;;;;;;;;;;;;;;16.10;100.00;99012.72;4291570;33;20367;-73
2023/01/01 12:07:32;;;;;;;;;;;;;;;16.31;100.00;99000.53;4293510;33;19945;-73
2023/01/01 12:10:12;;;;;;;;;;;;;;;16.20;100.00;99006.38;4295144;33;19984;-71
2023/01/01 12:12:41;;;;;;;;;;;;;;;16.24;100.00;98997.38;4288507;33;19957;-72
2023/01/01 12:15:19;;;;;;;;;;;;;;;16.12;100.00;99013.25;4291238;33;19937;-73
2023/01/01 12:17:51;;;;;;;;;;;;;;;16.29;100.00;99005.47;4292779;33;19970;-72
2023/01/01 12:20:24;;;;;;;;;;;;;;;16.05;100.00;99015.47;4276761;33;19973;-73
2023/01/01 12:22:54;;;;;;;;;;;;;;;16.24;100.00;99019.09;4262553;33;20071;-73
2023/01/01 12:25:20;;;;;;;;;;;;;;;16.25;100.00;99015.28;4255805;33;19985;-73
2023/01/01 12:27:56;;;;;;;;;;;;;;;16.22;100.00;99034.88;4246528;33;20393;-72
2023/01/01 12:30:37;;;;;;;;;;;;;;;16.09;100.00;99032.81;4241148;33;20013;-73
2023/01/01 12:33:20;;;;;;;;;;;;;;;16.29;100.00;99038.06;4250439;33;20003;-73
2023/01/01 12:35:49;;;;;;;;;;;;;;;16.22;100.00;99026.72;4251935;33;20343;-73
2023/01/01 12:38:37;;;;;;;;;;;;;;;16.31;100.00;99035.88;4251939;33;19996;-74
2023/01/01 12:41:29;;;;;;;;;;;;;;;16.17;100.00;99041.16;4252300;33;19942;-72
2023/01/01 12:44:04;;;;;;;;;;;;;;;16.27;100.00;99036.72;4252437;33;19955;-73
2023/01/01 12:46:43;;;;;;;;;;;;;;;16.33;100.00;99044.53;4252016;33;19943;-73
2023/01/01 12:49:24;;;;;;;;;;;;;;;16.49;100.00;99041.66;4252851;33;19951;-73
2023/01/01 12:52:02;;;;;;;;;;;;;;;16.64;100.00;99038.78;4274723;33;20329;-72
2023/01/01 12:54:38;;;;;;;;;;;;;;;16.27;100.00;99048.37;4289314;33;19967;-72
2023/01/01 12:57:09;;;;;;;;;;;;;;;16.39;100.00;99049.94;4292215;33;20844;-73
2023/01/01 12:59:38;;;;;;;;;;;;;;;16.71;100.00;99052.81;4291820;33;19948;-72
2023/01/01 13:02:14;;;;;;;;;;;;;;;16.52;100.00;99041.09;4309193;33;19956;-72
2023/01/01 13:04:42;;;;;;;;;;;;;;;16.41;100.00;99040.37;4303371;33;19953;-73
2023/01/01 13:07:11;;;;;;;;;;;;;;;16.10;100.00;99056.19;4294174;33;20302;-73
2023/01/01 13:09:39;;;;;;;;;;;;;;;16.45;100.00;99035.16;4295227;33;19949;-73
2023/01/01 13:12:11;;;;;;;;;;;;;;;16.45;100.00;99035.16;4295539;33;20001;-72
2023/01/01 13:14:38;;;;;;;;;;;;;;;16.23;100.00;99028.34;4292898;33;19963;-73
2023/01/01 13:17:16;;;;;;;;;;;;;;;16.34;100.00;99019.00;4293897;33;20046;-72
2023/01/01 13:19:43;;;;;;;;;;;;;;;16.22;100.00;99015.84;4273840;33;19960;-73
2023/01/01 13:22:24;;;;;;;;;;;;;;;16.36;100.00;99015.97;4274772;33;20366;-72
2023/01/01 13:25:15;;;;;;;;;;;;;;;16.19;100.00;99011.00;4274438;33;20329;-74
2023/01/01 13:30:32;;;;;;;;;;;;;;;15.90;100.00;99030.81;4265037;33;19955;-73
2023/01/01 13:33:23;;;;;;;;;;;;;;;16.03;100.00;99033.97;4268815;33;19947;-73
2023/01/01 13:36:07;;;;;;;;;;;;;;;15.69;100.00;99045.63;4235158;33;19956;-73
2023/01/01 13:38:43;;;;;;;;;;;;;;;15.71;100.00;99048.84;4234141;33;19946;-73
2023/01/01 13:41:29;;;;;;;;;;;;;;;15.73;100.00;99052.09;4235005;33;19995;-72
2023/01/01 13:43:58;;;;;;;;;;;;;;;15.67;100.00;99061.38;4232583;33;20818;-73
2023/01/01 13:46:28;;;;;;;;;;;;;;;15.58;100.00;99066.59;4219691;33;19994;-73
2023/01/01 13:49:25;;;;;;;;;;;;;;;15.58;100.00;99078.25;4220273;33;20780;-72
2023/01/01 13:51:56;;;;;;;;;;;;;;;15.62;100.00;99076.59;4231998;33;20016;-72
2023/01/01 13:54:42;;;;;;;;;;;;;;;15.42;100.00;99076.72;4217889;34;20036;-72
2023/01/01 13:57:19;;;;;;;;;;;;;;;15.40;100.00;99087.88;4217330;34;20380;-73
2023/01/01 14:00:09;;;;;;;;;;;;;;;15.30;100.00;99087.09;4229782;33;19951;-72
2023/01/01 14:02:43;;;;;;;;;;;;;;;15.30;100.00;99087.09;4204536;34;20622;-73
2023/01/01 14:05:14;;;;;;;;;;;;;;;15.16;100.00;99114.03;4206310;34;19938;-73
2023/01/01 14:07:51;;;;;;;;;;;;;;;15.33;100.00;99110.97;4204438;34;20529;-72
2023/01/01 14:10:23;;;;;;;;;;;;;;;15.33;100.00;99119.09;4206193;34;19939;-73
2023/01/01 14:12:50;;;;;;;;;;;;;;;15.45;100.00;99133.16;4210300;34;20467;-74
2023/01/01 14:15:27;;;;;;;;;;;;;;;15.26;100.00;99130.25;4219610;34;19962;-71
2023/01/01 14:17:56;;;;;;;;;;;;;;;15.02;100.00;99146.34;4220701;34;20893;-72
2023/01/01 14:20:26;;;;;;;;;;;;;;;15.17;100.00;99142.75;4219742;34;19962;-73
2023/01/01 14:22:54;;;;;;;;;;;;;;;15.04;100.00;99138.75;4220930;34;19974;-73
2023/01/01 14:25:27;;;;;;;;;;;;;;;14.93;100.00;99137.16;4236868;33;20032;-72
2023/01/01 14:27:55;;;;;;;;;;;;;;;14.97;100.00;99127.41;4262132;33;20009;-72
2023/01/01 14:30:21;;;;;;;;;;;;;;;14.76;100.00;99138.28;4262223;33;19964;-73
2023/01/01 14:32:58;;;;;;;;;;;;;;;14.96;100.00;99152.88;4251797;33;19969;-73
2023/01/01 14:35:25;;;;;;;;;;;;;;;14.81;100.00;99151.03;4245947;33;19960;-73
2023/01/01 14:37:52;;;;;;;;;;;;;;;14.98;100.00;99145.25;4258502;33;19961;-73
2023/01/01 14:40:25;;;;;;;;;;;;;;;14.74;100.00;99145.84;4292477;33;19959;-74
2023/01/01 14:42:54;;;;;;;;;;;;;;;14.65;100.00;99147.53;4303132;33;20281;-74
2023/01/01 14:45:21;;;;;;;;;;;;;;;14.83;100.00;99159.69;4294985;33;19953;-73
2023/01/01 14:47:49;;;;;;;;;;;;;;;14.74;100.00;99154.00;4303722;33;19974;-73
2023/01/01 14:50:22;;;;;;;;;;;;;;;14.80;100.00;99147.47;4300493;33;20000;-73
2023/01/01 14:52:53;;;;;;;;;;;;;;;14.73;100.00;99144.25;4302998;33;20032;-73
2023/01/01 14:55:20;;;;;;;;;;;;;;;14.59;100.00;99146.69;4297279;33;19993;-72